createdAt,value
2018-03-18T00:00:16.339Z,-0.70
2018-03-18T00:02:46.161Z,-0.70
2018-03-18T00:05:15.277Z,-0.70
2018-03-18T00:07:43.541Z,-0.70
2018-03-18T00:10:11.826Z,-0.70
2018-03-18T00:12:40.084Z,-0.70
2018-03-18T00:15:08.361Z,-0.80
2018-03-18T00:17:36.642Z,-0.80
2018-03-18T00:20:04.894Z,-0.80
2018-03-18T00:22:33.178Z,-0.80
2018-03-18T00:25:01.426Z,-0.80
2018-03-18T00:27:29.718Z,-0.70
2018-03-18T00:29:58.002Z,-0.80
2018-03-18T00:32:26.259Z,-0.70
2018-03-18T00:34:54.551Z,-0.70
2018-03-18T00:37:22.838Z,-0.70
2018-03-18T00:39:51.089Z,-0.70
2018-03-18T00:42:19.378Z,-0.80
2018-03-18T00:44:46.861Z,-0.80
2018-03-18T00:47:16.530Z,-0.70
2018-03-18T00:49:45.803Z,-0.80
2018-03-18T00:52:14.095Z,-0.80
2018-03-18T00:54:42.378Z,-0.80
2018-03-18T00:57:10.669Z,-0.80
2018-03-18T00:59:38.918Z,-0.80
2018-03-18T01:02:07.173Z,-0.80
2018-03-18T01:04:35.466Z,-0.80
2018-03-18T01:07:03.716Z,-0.80
2018-03-18T01:09:32.022Z,-0.80
2018-03-18T01:12:00.282Z,-0.80
2018-03-18T01:14:28.581Z,-0.80
2018-03-18T01:16:56.830Z,-0.80
2018-03-18T01:19:25.106Z,-0.80
2018-03-18T01:21:53.353Z,-0.70
2018-03-18T01:24:21.638Z,-0.70
2018-03-18T01:26:49.900Z,-0.80
2018-03-18T01:29:18.184Z,-0.80
2018-03-18T01:31:52.690Z,-0.80
2018-03-18T01:34:20.986Z,-0.80
2018-03-18T01:36:49.235Z,-0.90
2018-03-18T01:39:17.498Z,-0.80
2018-03-18T01:41:47.115Z,-0.90
2018-03-18T01:44:14.605Z,-0.90
2018-03-18T01:46:42.888Z,-0.80
2018-03-18T01:49:11.138Z,-0.70
2018-03-18T01:51:39.419Z,-0.80
2018-03-18T01:54:07.683Z,-0.70
2018-03-18T01:56:35.970Z,-0.70
2018-03-18T01:59:04.234Z,-0.80
2018-03-18T02:01:32.534Z,-0.80
2018-03-18T02:04:00.781Z,-0.90
2018-03-18T02:06:29.038Z,-0.80
2018-03-18T02:08:57.314Z,-0.80
2018-03-18T02:11:25.565Z,-0.80
2018-03-18T02:13:53.868Z,-0.80
2018-03-18T02:16:21.357Z,-0.80
2018-03-18T02:18:49.637Z,-0.90
2018-03-18T02:21:17.885Z,-0.80
2018-03-18T02:23:47.384Z,-0.90
2018-03-18T02:26:16.050Z,-0.90
2018-03-18T02:28:46.030Z,-0.90
2018-03-18T02:31:15.811Z,-1.00
2018-03-18T02:33:44.202Z,-0.90
2018-03-18T02:36:12.475Z,-0.90
2018-03-18T02:38:40.778Z,-0.90
2018-03-18T02:41:09.066Z,-0.90
2018-03-18T02:43:37.336Z,-1.00
2018-03-18T02:46:05.635Z,-0.90
2018-03-18T02:48:33.895Z,-0.90
2018-03-18T02:51:02.143Z,-1.00
2018-03-18T02:53:30.431Z,-1.00
2018-03-18T02:55:58.726Z,-1.00
2018-03-18T02:58:27.012Z,-0.90
2018-03-18T03:00:55.272Z,-1.00
2018-03-18T03:03:23.577Z,-1.00
2018-03-18T03:05:51.827Z,-1.00
2018-03-18T03:08:20.082Z,-1.00
2018-03-18T03:10:48.374Z,-1.00
2018-03-18T03:13:16.627Z,-1.00
2018-03-18T03:15:46.139Z,-1.00
2018-03-18T03:18:15.108Z,-1.00
2018-03-18T03:20:43.395Z,-1.00
2018-03-18T03:23:11.668Z,-1.00
2018-03-18T03:25:39.194Z,-1.00
2018-03-18T03:28:07.463Z,-1.00
2018-03-18T03:30:35.755Z,-1.00
2018-03-18T03:33:04.017Z,-1.10
2018-03-18T03:35:32.309Z,-1.10
2018-03-18T03:38:00.558Z,-1.10
2018-03-18T03:40:28.846Z,-1.10
2018-03-18T03:42:57.098Z,-1.10
2018-03-18T03:45:25.382Z,-1.10
2018-03-18T03:47:53.643Z,-1.10
2018-03-18T03:50:21.923Z,-1.10
2018-03-18T03:52:50.222Z,-1.20
2018-03-18T03:55:17.710Z,-1.10
2018-03-18T03:57:47.308Z,-1.10
2018-03-18T04:00:15.566Z,-1.20
2018-03-18T04:02:43.866Z,-1.20
2018-03-18T04:05:12.127Z,-1.10
2018-03-18T04:07:40.383Z,-1.10
2018-03-18T04:10:08.670Z,-1.20
2018-03-18T04:12:36.958Z,-1.20
2018-03-18T04:15:04.454Z,-1.30
2018-03-18T04:17:32.747Z,-1.20
2018-03-18T04:20:01.015Z,-1.20
2018-03-18T04:22:32.419Z,-1.30
2018-03-18T04:25:00.675Z,-1.30
2018-03-18T04:27:28.986Z,-1.20
2018-03-18T04:29:57.250Z,-1.20
2018-03-18T04:32:25.511Z,-1.30
2018-03-18T04:34:53.796Z,-1.30
2018-03-18T04:37:22.076Z,-1.30
2018-03-18T04:39:50.363Z,-1.40
2018-03-18T04:42:17.903Z,-1.40
2018-03-18T04:44:47.519Z,-1.40
2018-03-18T04:47:16.756Z,-1.30
2018-03-18T04:49:46.254Z,-1.30
2018-03-18T04:52:15.322Z,-1.40
2018-03-18T04:54:43.570Z,-1.40
2018-03-18T04:57:11.860Z,-1.40
2018-03-18T04:59:40.115Z,-1.40
2018-03-18T05:02:08.411Z,-1.40
2018-03-18T05:04:36.676Z,-1.50
2018-03-18T05:07:04.985Z,-1.50
2018-03-18T05:09:33.245Z,-1.40
2018-03-18T05:12:01.512Z,-1.40
2018-03-18T05:14:29.040Z,-1.40
2018-03-18T05:16:57.327Z,-1.40
2018-03-18T05:19:25.662Z,-1.40
2018-03-18T05:21:53.898Z,-1.40
2018-03-18T05:24:22.161Z,-1.40
2018-03-18T05:26:50.463Z,-1.40
2018-03-18T05:29:18.727Z,-1.40
2018-03-18T05:31:47.014Z,-1.40
2018-03-18T05:34:16.302Z,-1.40
2018-03-18T05:36:44.603Z,-1.40
2018-03-18T05:39:12.868Z,-1.40
2018-03-18T05:41:41.143Z,-1.40
2018-03-18T05:44:09.439Z,-1.50
2018-03-18T05:46:37.700Z,-1.40
2018-03-18T05:49:05.950Z,-1.40
2018-03-18T05:51:34.247Z,-1.40
2018-03-18T05:54:02.511Z,-1.40
2018-03-18T05:56:30.806Z,-1.30
2018-03-18T05:58:59.094Z,-1.40
2018-03-18T06:01:27.382Z,-1.40
2018-03-18T06:03:55.668Z,-1.40
2018-03-18T06:06:23.932Z,-1.50
2018-03-18T06:08:52.218Z,-1.40
2018-03-18T06:11:20.495Z,-1.50
2018-03-18T06:13:48.754Z,-1.50
2018-03-18T06:16:17.046Z,-1.40
2018-03-18T06:18:46.158Z,-1.40
2018-03-18T06:21:15.355Z,-1.40
2018-03-18T06:23:43.628Z,-1.40
2018-03-18T06:26:11.150Z,-1.50
2018-03-18T06:28:39.435Z,-1.50
2018-03-18T06:31:07.803Z,-1.40
2018-03-18T06:33:36.103Z,-1.50
2018-03-18T06:36:03.597Z,-1.50
2018-03-18T06:38:31.863Z,-1.40
2018-03-18T06:41:00.163Z,-1.50
2018-03-18T06:43:28.415Z,-1.40
2018-03-18T06:45:55.951Z,-1.40
2018-03-18T06:48:24.207Z,-1.40
2018-03-18T06:50:52.467Z,-1.40
2018-03-18T06:53:20.759Z,-1.50
2018-03-18T06:55:49.030Z,-1.50
2018-03-18T06:58:17.322Z,-1.50
2018-03-18T07:00:45.630Z,-1.50
2018-03-18T07:03:13.886Z,-1.50
2018-03-18T07:05:42.151Z,-1.50
2018-03-18T07:08:10.434Z,-1.50
2018-03-18T07:10:38.691Z,-1.50
2018-03-18T07:13:06.981Z,-1.40
2018-03-18T07:15:35.271Z,-1.40
2018-03-18T07:18:03.560Z,-1.50
2018-03-18T07:20:31.825Z,-1.50
2018-03-18T07:22:59.352Z,-1.50
2018-03-18T07:25:27.610Z,-1.30
2018-03-18T07:27:55.903Z,-1.40
2018-03-18T07:30:24.154Z,-1.40
2018-03-18T07:32:52.441Z,-1.30
2018-03-18T07:35:20.699Z,-1.40
2018-03-18T07:37:49.002Z,-1.30
2018-03-18T07:40:17.274Z,-1.30
2018-03-18T07:42:45.585Z,-1.30
2018-03-18T07:45:13.847Z,-1.40
2018-03-18T07:47:42.144Z,-1.30
2018-03-18T07:50:10.402Z,-1.30
2018-03-18T07:52:38.690Z,-1.30
2018-03-18T07:55:06.956Z,-1.30
2018-03-18T07:57:38.366Z,-1.30
2018-03-18T08:00:06.637Z,-1.30
2018-03-18T08:02:34.895Z,-1.40
2018-03-18T08:05:03.191Z,-1.30
2018-03-18T08:07:31.495Z,-1.40
2018-03-18T08:09:59.772Z,-1.40
2018-03-18T08:12:28.035Z,-1.30
2018-03-18T08:14:56.329Z,-1.30
2018-03-18T08:17:24.583Z,-1.20
2018-03-18T08:19:52.880Z,-1.30
2018-03-18T08:22:21.179Z,-1.30
2018-03-18T08:24:48.662Z,-1.40
2018-03-18T08:27:17.094Z,-1.40
2018-03-18T08:29:46.288Z,-1.30
2018-03-18T08:32:15.264Z,-1.30
2018-03-18T08:34:43.515Z,-1.30
2018-03-18T08:37:11.801Z,-1.20
2018-03-18T08:39:40.074Z,-1.30
2018-03-18T08:42:08.360Z,-1.30
2018-03-18T08:44:35.843Z,-1.30
2018-03-18T08:47:04.126Z,-1.30
2018-03-18T08:49:32.418Z,-1.20
2018-03-18T08:52:00.710Z,-1.20
2018-03-18T08:54:28.964Z,-1.10
2018-03-18T08:56:57.263Z,-1.10
2018-03-18T08:59:25.586Z,-1.10
2018-03-18T09:02:14.252Z,-1.10
2018-03-18T09:04:42.510Z,-1.10
2018-03-18T09:07:10.815Z,-1.20
2018-03-18T09:09:39.082Z,-1.00
2018-03-18T09:12:07.338Z,-1.00
2018-03-18T09:14:34.875Z,-1.00
2018-03-18T09:17:03.134Z,-1.00
2018-03-18T09:19:31.426Z,-1.00
2018-03-18T09:21:59.698Z,-1.00
2018-03-18T09:24:27.983Z,-1.00
2018-03-18T09:26:56.248Z,-1.00
2018-03-18T09:29:24.543Z,-1.00
2018-03-18T09:31:52.794Z,-1.00
2018-03-18T09:34:21.082Z,-1.00
2018-03-18T09:36:49.339Z,-1.00
2018-03-18T09:39:17.601Z,-1.00
2018-03-18T09:41:46.996Z,-1.00
2018-03-18T09:44:16.171Z,-1.10
2018-03-18T09:46:45.127Z,-1.00
2018-03-18T09:49:13.326Z,-1.10
2018-03-18T09:51:41.631Z,-1.10
2018-03-18T09:54:09.947Z,-1.10
2018-03-18T09:56:38.219Z,-1.10
2018-03-18T09:59:06.508Z,-1.10
2018-03-18T10:01:34.772Z,-1.00
2018-03-18T10:04:03.075Z,-1.00
2018-03-18T10:06:30.574Z,-1.00
2018-03-18T10:08:58.839Z,-0.90
2018-03-18T10:11:27.151Z,-0.80
2018-03-18T10:13:55.415Z,-0.80
2018-03-18T10:16:23.698Z,-0.80
2018-03-18T10:18:52.002Z,-0.80
2018-03-18T10:21:20.252Z,-0.80
2018-03-18T10:23:48.516Z,-0.70
2018-03-18T10:26:16.799Z,-0.80
2018-03-18T10:28:46.543Z,-0.60
2018-03-18T10:31:16.015Z,-0.80
2018-03-18T10:33:45.865Z,-0.80
2018-03-18T10:36:14.159Z,-0.80
2018-03-18T10:38:42.431Z,-0.70
2018-03-18T10:41:10.719Z,-0.70
2018-03-18T10:43:38.982Z,-0.70
2018-03-18T10:46:07.276Z,-0.60
2018-03-18T10:48:35.543Z,-0.60
2018-03-18T10:51:03.796Z,-0.50
2018-03-18T10:53:32.131Z,-0.60
2018-03-18T10:56:00.366Z,-0.50
2018-03-18T10:58:28.658Z,-0.50
2018-03-18T11:01:02.499Z,-0.50
2018-03-18T11:03:30.786Z,-0.50
2018-03-18T11:05:58.283Z,-0.50
2018-03-18T11:08:26.570Z,-0.50
2018-03-18T11:10:54.863Z,-0.40
2018-03-18T11:13:23.151Z,-0.50
2018-03-18T11:15:51.402Z,-0.40
2018-03-18T11:18:19.703Z,-0.40
2018-03-18T11:20:47.962Z,-0.40
2018-03-18T11:23:16.937Z,-0.40
2018-03-18T11:25:46.175Z,-0.30
2018-03-18T11:28:15.124Z,-0.30
2018-03-18T11:30:43.427Z,-0.20
2018-03-18T11:33:11.683Z,-0.20
2018-03-18T11:35:39.251Z,-0.10
2018-03-18T11:38:06.712Z,-0.10
2018-03-18T11:40:34.998Z,0.00
2018-03-18T11:43:03.283Z,0.00
2018-03-18T11:45:30.770Z,0.00
2018-03-18T11:47:59.072Z,-0.10
2018-03-18T11:50:27.351Z,-0.10
2018-03-18T11:52:55.610Z,-0.10
2018-03-18T11:55:23.903Z,-0.10
2018-03-18T11:57:52.151Z,0.10
2018-03-18T12:00:20.452Z,0.10
2018-03-18T12:02:48.706Z,0.10
2018-03-18T12:05:19.242Z,0.20
2018-03-18T12:07:47.046Z,0.10
2018-03-18T12:10:15.851Z,0.20
2018-03-18T12:12:44.143Z,0.20
2018-03-18T12:15:12.430Z,0.20
2018-03-18T12:17:40.703Z,0.20
2018-03-18T12:20:08.961Z,0.20
2018-03-18T12:22:37.247Z,0.30
2018-03-18T12:25:05.550Z,0.30
2018-03-18T12:27:33.802Z,0.40
2018-03-18T12:30:02.050Z,0.40
2018-03-18T12:32:30.336Z,0.40
2018-03-18T12:34:58.626Z,0.40
2018-03-18T12:37:26.881Z,0.50
2018-03-18T12:40:06.958Z,0.70
2018-03-18T12:42:47.598Z,0.80
2018-03-18T12:45:17.323Z,0.80
2018-03-18T12:47:46.064Z,0.80
2018-03-18T12:50:15.873Z,1.10
2018-03-18T12:52:44.127Z,1.20
2018-03-18T12:55:12.422Z,1.30
2018-03-18T12:57:40.715Z,1.30
2018-03-18T13:00:09.031Z,1.40
2018-03-18T13:02:37.285Z,1.40
2018-03-18T13:05:05.543Z,1.50
2018-03-18T13:07:33.831Z,1.60
2018-03-18T13:10:02.091Z,1.70
2018-03-18T13:12:30.395Z,1.80
2018-03-18T13:14:58.658Z,2.00
2018-03-18T13:17:26.915Z,2.20
2018-03-18T13:19:55.206Z,2.20
2018-03-18T13:22:23.495Z,2.30
2018-03-18T13:24:55.446Z,2.30
2018-03-18T13:27:23.700Z,2.10
2018-03-18T13:29:51.991Z,2.00
2018-03-18T13:32:20.275Z,1.90
2018-03-18T13:34:51.646Z,1.70
2018-03-18T13:37:19.146Z,1.70
2018-03-18T13:39:47.410Z,1.70
2018-03-18T13:42:16.915Z,1.70
2018-03-18T13:44:48.555Z,1.60
2018-03-18T13:47:16.845Z,1.60
2018-03-18T13:49:46.236Z,1.60
2018-03-18T13:52:14.715Z,1.60
2018-03-18T13:54:43.002Z,1.50
2018-03-18T13:57:11.298Z,1.60
2018-03-18T13:59:39.564Z,1.60
2018-03-18T14:02:07.854Z,1.60
2018-03-18T14:04:36.139Z,1.60
2018-03-18T14:07:03.630Z,1.60
2018-03-18T14:09:31.927Z,1.60
2018-03-18T14:12:00.220Z,1.70
2018-03-18T14:14:28.478Z,1.80
2018-03-18T14:16:56.774Z,1.90
2018-03-18T14:19:25.031Z,1.90
2018-03-18T14:21:53.306Z,1.80
2018-03-18T14:24:21.601Z,1.80
2018-03-18T14:26:49.094Z,1.80
2018-03-18T14:29:17.395Z,1.80
2018-03-18T14:31:46.550Z,1.80
2018-03-18T14:34:15.776Z,1.80
2018-03-18T14:36:44.054Z,1.80
2018-03-18T14:39:12.311Z,1.80
2018-03-18T14:41:40.594Z,1.80
2018-03-18T14:44:08.858Z,1.70
2018-03-18T14:46:37.150Z,1.70
2018-03-18T14:49:05.410Z,1.70
2018-03-18T14:51:33.707Z,1.60
2018-03-18T14:54:02.002Z,1.60
2018-03-18T14:56:30.261Z,1.50
2018-03-18T14:58:58.557Z,1.50
2018-03-18T15:01:26.818Z,1.40
2018-03-18T15:03:55.107Z,1.40
2018-03-18T15:06:23.376Z,1.40
2018-03-18T15:08:51.667Z,1.30
2018-03-18T15:11:19.947Z,1.30
2018-03-18T15:13:48.242Z,1.30
2018-03-18T15:16:17.430Z,1.30
2018-03-18T15:18:46.795Z,1.20
2018-03-18T15:21:16.461Z,1.20
2018-03-18T15:23:45.726Z,1.10
2018-03-18T15:26:14.034Z,1.10
2018-03-18T15:28:42.291Z,1.20
2018-03-18T15:31:10.591Z,1.10
2018-03-18T15:33:38.878Z,1.10
2018-03-18T15:36:07.143Z,1.20
2018-03-18T15:38:35.426Z,1.20
2018-03-18T15:41:03.723Z,1.20
2018-03-18T15:43:32.012Z,1.20
2018-03-18T15:46:00.271Z,1.10
2018-03-18T15:48:28.524Z,1.20
2018-03-18T15:50:56.811Z,1.20
2018-03-18T15:53:25.069Z,1.20
2018-03-18T15:55:53.358Z,1.20
2018-03-18T15:58:21.644Z,1.20
2018-03-18T16:00:49.931Z,1.20
2018-03-18T16:03:18.223Z,1.20
2018-03-18T16:05:47.539Z,1.30
2018-03-18T16:08:16.271Z,1.30
2018-03-18T16:10:45.268Z,1.30
2018-03-18T16:13:13.556Z,1.20
2018-03-18T16:15:41.842Z,1.20
2018-03-18T16:18:10.105Z,1.20
2018-03-18T16:20:38.390Z,1.20
2018-03-18T16:23:06.651Z,1.20
2018-03-18T16:25:34.943Z,1.10
2018-03-18T16:28:03.195Z,1.10
2018-03-18T16:30:43.333Z,1.10
2018-03-18T16:33:10.848Z,1.10
2018-03-18T16:35:39.127Z,1.20
2018-03-18T16:38:07.419Z,1.10
2018-03-18T16:40:35.670Z,1.10
2018-03-18T16:43:03.953Z,1.00
2018-03-18T16:45:32.215Z,1.00
2018-03-18T16:48:00.510Z,1.00
2018-03-18T16:50:28.760Z,1.00
2018-03-18T16:52:57.021Z,0.90
2018-03-18T16:55:25.314Z,0.90
2018-03-18T16:57:53.576Z,0.90
2018-03-18T17:00:21.830Z,0.90
2018-03-18T17:02:50.124Z,0.80
2018-03-18T17:05:18.388Z,0.80
2018-03-18T17:07:46.642Z,0.80
2018-03-18T17:10:15.675Z,0.80
2018-03-18T17:12:43.923Z,0.70
2018-03-18T17:15:12.206Z,0.70
2018-03-18T17:17:45.746Z,0.70
2018-03-18T17:20:14.047Z,0.70
2018-03-18T17:22:42.306Z,0.60
2018-03-18T17:25:10.594Z,0.70
2018-03-18T17:27:38.850Z,0.60
2018-03-18T17:30:07.143Z,0.60
2018-03-18T17:32:34.623Z,0.60
2018-03-18T17:35:02.878Z,0.80
2018-03-18T17:37:31.171Z,0.70
2018-03-18T17:39:59.432Z,0.60
2018-03-18T17:42:27.744Z,0.60
2018-03-18T17:45:07.799Z,0.50
2018-03-18T17:47:47.848Z,0.50
2018-03-18T17:50:44.957Z,0.50
2018-03-18T17:53:25.111Z,0.40
2018-03-18T17:56:05.317Z,0.40
2018-03-18T17:58:33.598Z,0.40
2018-03-18T18:01:01.888Z,0.40
2018-03-18T18:03:30.166Z,0.30
2018-03-18T18:05:58.419Z,0.40
2018-03-18T18:08:26.699Z,0.30
2018-03-18T18:10:54.947Z,0.30
2018-03-18T18:13:23.235Z,0.30
2018-03-18T18:15:51.517Z,0.20
2018-03-18T18:18:19.798Z,0.20
2018-03-18T18:20:48.046Z,0.20
2018-03-18T18:23:17.591Z,0.20
2018-03-18T18:25:46.886Z,0.20
2018-03-18T18:28:16.600Z,0.20
2018-03-18T18:30:45.508Z,0.20
2018-03-18T18:33:13.791Z,0.20
2018-03-18T18:35:42.067Z,0.20
2018-03-18T18:38:10.320Z,0.10
2018-03-18T18:40:38.610Z,0.20
2018-03-18T18:43:06.131Z,0.10
2018-03-18T18:45:34.420Z,0.20
2018-03-18T18:48:02.672Z,0.20
2018-03-18T18:50:30.959Z,0.20
2018-03-18T18:52:59.211Z,0.20
2018-03-18T18:55:27.504Z,0.20
2018-03-18T18:57:54.991Z,0.20
2018-03-18T19:00:23.268Z,0.20
2018-03-18T19:02:51.543Z,0.20
2018-03-18T19:05:19.794Z,0.10
2018-03-18T19:07:48.075Z,0.00
2018-03-18T19:10:17.697Z,0.00
2018-03-18T19:12:47.064Z,0.00
2018-03-18T19:15:16.031Z,0.00
2018-03-18T19:17:44.275Z,0.10
2018-03-18T19:20:12.583Z,0.10
2018-03-18T19:22:40.866Z,0.00
2018-03-18T19:25:09.115Z,0.00
2018-03-18T19:27:37.399Z,0.00
2018-03-18T19:30:05.647Z,0.00
2018-03-18T19:32:33.922Z,0.00
2018-03-18T19:35:02.198Z,0.00
2018-03-18T19:37:30.479Z,0.10
2018-03-18T19:39:58.731Z,0.00
2018-03-18T19:42:27.006Z,0.10
2018-03-18T19:44:55.283Z,0.00
2018-03-18T19:47:23.535Z,0.10
2018-03-18T19:49:51.815Z,0.00
2018-03-18T19:52:20.111Z,-0.10
2018-03-18T19:54:48.361Z,0.00
2018-03-18T19:57:16.614Z,-0.10
2018-03-18T19:59:46.695Z,-0.10
2018-03-18T20:02:15.902Z,0.00
2018-03-18T20:04:46.115Z,0.00
2018-03-18T20:07:15.101Z,-0.10
2018-03-18T20:09:43.388Z,0.00
2018-03-18T20:12:11.672Z,0.00
2018-03-18T20:14:39.933Z,-0.10
2018-03-18T20:17:08.227Z,-0.10
2018-03-18T20:19:36.514Z,-0.10
2018-03-18T20:22:04.806Z,-0.10
2018-03-18T20:24:33.064Z,-0.10
2018-03-18T20:27:00.582Z,-0.10
2018-03-18T20:29:28.838Z,-0.10
2018-03-18T20:31:57.131Z,-0.10
2018-03-18T20:34:25.390Z,-0.10
2018-03-18T20:36:53.678Z,-0.10
2018-03-18T20:39:21.930Z,0.00
2018-03-18T20:41:50.222Z,-0.10
2018-03-18T20:44:18.473Z,-0.10
2018-03-18T20:46:46.755Z,-0.10
2018-03-18T20:49:15.714Z,-0.20
2018-03-18T20:51:44.003Z,-0.10
2018-03-18T20:54:12.261Z,-0.20
2018-03-18T20:56:40.522Z,-0.20
2018-03-18T20:59:08.802Z,-0.10
2018-03-18T21:01:37.084Z,-0.20
2018-03-18T21:04:05.345Z,-0.20
2018-03-18T21:06:33.622Z,-0.10
2018-03-18T21:09:01.880Z,-0.10
2018-03-18T21:11:30.175Z,-0.20
2018-03-18T21:13:58.429Z,-0.20
2018-03-18T21:16:26.683Z,-0.20
2018-03-18T21:18:54.973Z,-0.20
2018-03-18T21:21:22.466Z,-0.20
2018-03-18T21:23:50.763Z,-0.20
2018-03-18T21:26:19.050Z,-0.10
2018-03-18T21:28:47.316Z,-0.10
2018-03-18T21:31:15.606Z,0.00
2018-03-18T21:33:43.855Z,-0.20
2018-03-18T21:36:12.119Z,-0.10
2018-03-18T21:38:40.425Z,-0.20
2018-03-18T21:41:08.680Z,-0.20
2018-03-18T21:43:36.937Z,-0.20
2018-03-18T21:46:05.225Z,-0.20
2018-03-18T21:48:33.499Z,-0.20
2018-03-18T21:51:01.794Z,-0.10
2018-03-18T21:53:30.064Z,-0.10
2018-03-18T21:55:58.347Z,-0.10
2018-03-18T21:58:26.643Z,-0.10
2018-03-18T22:00:54.900Z,-0.20
2018-03-18T22:03:23.151Z,-0.20
2018-03-18T22:05:51.430Z,-0.30
2018-03-18T22:08:19.694Z,-0.20
2018-03-18T22:10:47.983Z,-0.20
2018-03-18T22:13:17.475Z,-0.20
2018-03-18T22:15:46.840Z,-0.30
2018-03-18T22:18:15.963Z,-0.40
2018-03-18T22:20:44.249Z,-0.30
2018-03-18T22:23:12.581Z,-0.40
2018-03-18T22:25:40.831Z,-0.20
2018-03-18T22:28:09.108Z,-0.30
2018-03-18T22:30:37.358Z,-0.30
2018-03-18T22:33:05.647Z,-0.20
2018-03-18T22:35:33.903Z,-0.30
2018-03-18T22:38:02.190Z,-0.30
2018-03-18T22:40:30.471Z,-0.30
2018-03-18T22:42:57.960Z,-0.30
2018-03-18T22:45:26.250Z,-0.40
2018-03-18T22:47:54.500Z,-0.40
2018-03-18T22:50:22.799Z,-0.40
2018-03-18T22:52:51.047Z,-0.30
2018-03-18T22:55:19.353Z,-0.40
2018-03-18T22:57:46.849Z,-0.40
2018-03-18T23:00:18.016Z,-0.40
2018-03-18T23:02:47.485Z,-0.40
2018-03-18T23:05:15.987Z,-0.40
2018-03-18T23:07:44.275Z,-0.30
2018-03-18T23:10:12.603Z,-0.40
2018-03-18T23:12:40.913Z,-0.40
2018-03-18T23:15:09.169Z,-0.40
2018-03-18T23:17:37.460Z,-0.40
2018-03-18T23:20:05.715Z,-0.50
2018-03-18T23:22:34.005Z,-0.40
2018-03-18T23:25:02.260Z,-0.40
2018-03-18T23:27:30.516Z,-0.50
2018-03-18T23:29:58.811Z,-0.50
2018-03-18T23:32:27.062Z,-0.50
2018-03-18T23:34:55.332Z,-0.50
2018-03-18T23:37:23.620Z,-0.40
2018-03-18T23:39:51.906Z,-0.40
2018-03-18T23:42:20.155Z,-0.50
2018-03-18T23:44:48.412Z,-0.40
2018-03-18T23:47:16.699Z,-0.50
2018-03-18T23:49:46.178Z,-0.50
2018-03-18T23:52:15.350Z,-0.50
2018-03-18T23:54:43.622Z,-0.50
2018-03-18T23:57:11.919Z,-0.60
2018-03-18T23:59:40.170Z,-0.60
